createdAt,value
2022-09-12T00:00:15.773Z,59.00
2022-09-12T00:02:42.360Z,58.88
2022-09-12T00:05:09.061Z,59.17
2022-09-12T00:07:35.821Z,59.13
2022-09-12T00:10:02.383Z,59.21
2022-09-12T00:12:28.921Z,58.69
2022-09-12T00:14:55.487Z,58.54
2022-09-12T00:17:22.008Z,58.78
2022-09-12T00:19:48.527Z,58.61
2022-09-12T00:22:15.133Z,59.03
2022-09-12T00:24:41.666Z,57.28
2022-09-12T00:27:08.222Z,56.58
2022-09-12T00:29:34.871Z,56.05
2022-09-12T00:32:01.724Z,55.82
2022-09-12T00:34:28.317Z,56.19
2022-09-12T00:36:54.894Z,56.72
2022-09-12T00:39:21.398Z,57.47
2022-09-12T00:41:47.867Z,57.61
2022-09-12T00:44:23.571Z,58.22
2022-09-12T00:47:04.988Z,58.72
2022-09-12T00:49:46.347Z,58.92
2022-09-12T00:52:31.834Z,59.51
2022-09-12T00:55:05.424Z,59.11
2022-09-12T00:57:41.625Z,59.26
2022-09-12T01:00:15.796Z,59.16
2022-09-12T01:02:59.846Z,59.59
2022-09-12T01:05:29.549Z,59.65
2022-09-12T01:07:57.577Z,59.72
2022-09-12T01:10:24.697Z,59.56
2022-09-12T01:12:51.264Z,59.65
2022-09-12T01:15:17.899Z,59.85
2022-09-12T01:17:59.700Z,60.04
2022-09-12T01:20:57.954Z,59.95
2022-09-12T01:23:45.346Z,59.65
2022-09-12T01:26:49.587Z,59.38
2022-09-12T01:29:40.831Z,59.51
2022-09-12T01:32:29.041Z,59.45
2022-09-12T01:35:08.362Z,59.59
2022-09-12T01:37:42.707Z,59.67
2022-09-12T01:40:19.149Z,59.75
2022-09-12T01:43:09.699Z,59.50
2022-09-12T01:45:45.990Z,59.71
2022-09-12T01:48:24.489Z,59.63
2022-09-12T01:50:56.859Z,59.76
2022-09-12T01:53:29.709Z,59.92
2022-09-12T01:56:02.985Z,59.91
2022-09-12T01:58:38.864Z,59.49
2022-09-12T02:01:15.706Z,59.51
2022-09-12T02:03:53.715Z,59.86
2022-09-12T02:06:33.460Z,60.97
2022-09-12T02:09:06.837Z,60.66
2022-09-12T02:11:38.625Z,60.69
2022-09-12T02:14:21.661Z,60.53
2022-09-12T02:17:13.082Z,60.30
2022-09-12T02:19:49.341Z,60.09
2022-09-12T02:22:19.959Z,60.29
2022-09-12T02:24:52.468Z,60.74
2022-09-12T02:27:43.171Z,61.19
2022-09-12T02:30:10.787Z,61.36
2022-09-12T02:32:44.458Z,61.21
2022-09-12T02:35:42.436Z,61.64
2022-09-12T02:38:19.978Z,61.21
2022-09-12T02:40:46.940Z,61.13
2022-09-12T02:43:13.446Z,61.15
2022-09-12T02:45:40.250Z,61.16
2022-09-12T02:48:22.461Z,61.17
2022-09-12T02:50:49.285Z,61.12
2022-09-12T02:53:16.111Z,61.25
2022-09-12T02:55:43.290Z,61.55
2022-09-12T02:58:23.528Z,61.92
2022-09-12T03:01:23.050Z,61.96
2022-09-12T03:03:58.781Z,61.98
2022-09-12T03:07:00.548Z,62.11
2022-09-12T03:09:48.599Z,61.73
2022-09-12T03:12:30.325Z,61.66
2022-09-12T03:15:12.097Z,62.55
2022-09-12T03:18:11.488Z,62.38
2022-09-12T03:21:09.715Z,62.38
2022-09-12T03:24:17.928Z,61.87
2022-09-12T03:26:56.455Z,61.67
2022-09-12T03:29:26.279Z,61.30
2022-09-12T03:31:55.266Z,61.25
2022-09-12T03:34:23.463Z,61.09
2022-09-12T03:36:50.511Z,61.17
2022-09-12T03:39:17.329Z,61.45
2022-09-12T03:41:43.901Z,61.98
2022-09-12T03:44:10.455Z,61.75
2022-09-12T03:46:37.171Z,61.87
2022-09-12T03:49:03.922Z,61.89
2022-09-12T03:51:31.156Z,62.19
2022-09-12T03:53:57.673Z,62.55
2022-09-12T03:56:24.221Z,62.74
2022-09-12T03:58:50.710Z,63.05
2022-09-12T04:01:19.270Z,63.12
2022-09-12T04:03:50.703Z,63.39
2022-09-12T04:06:20.088Z,63.50
2022-09-12T04:08:54.774Z,64.38
2022-09-12T04:11:22.511Z,62.83
2022-09-12T04:13:49.759Z,62.70
2022-09-12T04:16:17.832Z,62.60
2022-09-12T04:18:44.928Z,62.49
2022-09-12T04:21:16.754Z,62.23
2022-09-12T04:23:43.854Z,62.39
2022-09-12T04:26:11.541Z,62.25
2022-09-12T04:28:38.687Z,61.95
2022-09-12T04:31:08.255Z,61.98
2022-09-12T04:33:36.240Z,61.53
2022-09-12T04:36:05.231Z,61.23
2022-09-12T04:38:32.278Z,61.02
2022-09-12T04:40:58.933Z,61.10
2022-09-12T04:43:25.579Z,61.27
2022-09-12T04:45:52.189Z,61.80
2022-09-12T04:48:18.898Z,61.10
2022-09-12T04:50:45.410Z,61.35
2022-09-12T04:53:12.041Z,60.38
2022-09-12T04:55:38.625Z,60.22
2022-09-12T04:58:05.225Z,60.49
2022-09-12T05:00:31.752Z,60.54
2022-09-12T05:02:58.321Z,59.54
2022-09-12T05:05:24.970Z,58.85
2022-09-12T05:07:51.550Z,59.41
2022-09-12T05:10:18.223Z,59.58
2022-09-12T05:12:44.716Z,59.69
2022-09-12T05:15:11.658Z,59.33
2022-09-12T05:17:38.290Z,59.89
2022-09-12T05:20:05.162Z,60.12
2022-09-12T05:22:31.748Z,60.06
2022-09-12T05:24:58.301Z,60.64
2022-09-12T05:27:24.830Z,60.50
2022-09-12T05:29:51.587Z,60.56
2022-09-12T05:32:18.206Z,60.50
2022-09-12T05:34:45.171Z,60.44
2022-09-12T05:37:11.718Z,60.74
2022-09-12T05:39:38.392Z,60.99
2022-09-12T05:42:06.114Z,60.99
2022-09-12T05:44:35.998Z,61.49
2022-09-12T05:47:02.580Z,61.67
2022-09-12T05:49:30.224Z,61.59
2022-09-12T05:51:56.773Z,61.08
2022-09-12T05:54:24.355Z,60.93
2022-09-12T05:56:52.180Z,60.92
2022-09-12T05:59:21.048Z,60.54
2022-09-12T06:01:48.686Z,60.84
2022-09-12T06:04:16.110Z,60.88
2022-09-12T06:06:45.116Z,61.31
2022-09-12T06:09:13.459Z,61.55
2022-09-12T06:11:43.485Z,61.33
2022-09-12T06:14:12.105Z,61.32
2022-09-12T06:16:39.398Z,61.30
2022-09-12T06:19:15.408Z,60.76
2022-09-12T06:21:42.511Z,60.71
2022-09-12T06:24:09.377Z,60.87
2022-09-12T06:26:36.799Z,60.86
2022-09-12T06:29:03.873Z,60.83
2022-09-12T06:31:36.038Z,60.26
2022-09-12T06:34:05.326Z,60.15
2022-09-12T06:36:34.297Z,59.63
2022-09-12T06:39:28.445Z,59.70
2022-09-12T06:41:57.220Z,59.65
2022-09-12T06:44:23.747Z,59.57
2022-09-12T06:46:50.626Z,58.82
2022-09-12T06:49:17.908Z,58.79
2022-09-12T06:51:44.802Z,58.89
2022-09-12T06:54:15.692Z,57.87
2022-09-12T06:56:42.887Z,58.07
2022-09-12T06:59:09.687Z,58.29
2022-09-12T07:01:36.373Z,58.57
2022-09-12T07:04:04.221Z,58.73
2022-09-12T07:06:38.054Z,57.78
2022-09-12T07:09:07.035Z,57.26
2022-09-12T07:11:36.559Z,57.13
2022-09-12T07:14:05.024Z,55.64
2022-09-12T07:16:34.218Z,55.80
2022-09-12T07:19:02.436Z,56.31
2022-09-12T07:21:29.737Z,56.21
2022-09-12T07:23:58.039Z,55.45
2022-09-12T07:26:26.909Z,56.04
2022-09-12T07:29:00.696Z,55.96
2022-09-12T07:31:39.633Z,55.19
2022-09-12T07:34:06.900Z,56.38
2022-09-12T07:36:33.420Z,55.02
2022-09-12T07:39:00.294Z,55.56
2022-09-12T07:41:29.369Z,55.88
2022-09-12T07:43:58.168Z,54.98
2022-09-12T07:46:28.423Z,52.80
2022-09-12T07:48:57.372Z,54.38
2022-09-12T07:51:28.233Z,54.01
2022-09-12T07:53:56.424Z,54.62
2022-09-12T07:56:29.360Z,54.83
2022-09-12T07:58:59.527Z,52.13
2022-09-12T08:01:26.601Z,52.71
2022-09-12T08:04:00.701Z,52.47
2022-09-12T08:06:31.069Z,52.55
2022-09-12T08:08:59.201Z,52.72
2022-09-12T08:11:28.253Z,53.63
2022-09-12T08:13:57.237Z,52.02
2022-09-12T08:16:26.924Z,52.14
2022-09-12T08:18:53.799Z,51.82
2022-09-12T08:21:30.780Z,51.70
2022-09-12T08:24:01.089Z,51.51
2022-09-12T08:26:28.474Z,52.08
2022-09-12T08:28:55.253Z,51.90
2022-09-12T08:31:23.860Z,52.45
2022-09-12T08:33:50.999Z,52.61
2022-09-12T08:36:20.978Z,51.94
2022-09-12T08:38:50.467Z,52.11
2022-09-12T08:41:38.843Z,51.62
2022-09-12T08:44:17.423Z,52.41
2022-09-12T08:46:47.096Z,51.70
2022-09-12T08:49:25.578Z,51.66
2022-09-12T08:51:52.636Z,53.27
2022-09-12T08:54:24.104Z,52.74
2022-09-12T08:56:51.172Z,51.66
2022-09-12T08:59:17.772Z,52.01
2022-09-12T09:01:45.707Z,52.88
2022-09-12T09:04:32.180Z,52.66
2022-09-12T09:07:04.603Z,52.56
2022-09-12T09:09:37.248Z,51.42
2022-09-12T09:12:28.481Z,51.98
2022-09-12T09:15:05.309Z,51.74
2022-09-12T09:17:50.074Z,50.60
2022-09-12T09:20:28.782Z,49.49
2022-09-12T09:23:15.515Z,49.34
2022-09-12T09:25:50.988Z,48.85
2022-09-12T09:28:31.914Z,50.35
2022-09-12T09:30:58.486Z,50.66
2022-09-12T09:33:31.046Z,50.55
2022-09-12T09:36:17.366Z,50.17
2022-09-12T09:39:13.548Z,47.32
2022-09-12T09:41:53.330Z,48.19
2022-09-12T09:44:20.275Z,49.45
2022-09-12T09:46:54.262Z,49.24
2022-09-12T09:49:22.360Z,46.53
2022-09-12T09:51:49.426Z,47.35
2022-09-12T09:54:24.474Z,48.43
2022-09-12T09:56:51.474Z,47.24
2022-09-12T09:59:31.584Z,47.00
2022-09-12T10:02:03.800Z,46.91
2022-09-12T10:04:36.018Z,46.50
2022-09-12T10:07:06.309Z,46.92
2022-09-12T10:09:35.101Z,46.88
2022-09-12T10:12:20.413Z,47.46
2022-09-12T10:14:58.283Z,46.52
2022-09-12T10:17:51.364Z,46.81
2022-09-12T10:20:41.677Z,44.08
2022-09-12T10:23:35.208Z,46.00
2022-09-12T10:26:04.648Z,45.48
2022-09-12T10:28:43.444Z,42.39
2022-09-12T10:31:15.684Z,45.05
2022-09-12T10:33:47.451Z,43.04
2022-09-12T10:36:15.723Z,43.34
2022-09-12T10:38:49.917Z,43.87
2022-09-12T10:41:16.956Z,41.21
2022-09-12T10:43:44.004Z,41.97
2022-09-12T10:46:19.681Z,42.67
2022-09-12T10:48:50.941Z,40.73
2022-09-12T10:51:28.444Z,42.63
2022-09-12T10:54:02.331Z,43.70
2022-09-12T10:56:53.466Z,43.09
2022-09-12T10:59:34.302Z,43.55
2022-09-12T11:02:46.669Z,41.74
2022-09-12T11:05:36.607Z,43.94
2022-09-12T11:08:55.794Z,43.53
2022-09-12T11:11:57.827Z,39.50
2022-09-12T11:14:36.848Z,42.47
2022-09-12T11:17:07.531Z,40.88
2022-09-12T11:19:57.190Z,40.59
2022-09-12T11:22:32.769Z,37.37
2022-09-12T11:25:20.566Z,41.13
2022-09-12T11:27:53.210Z,40.94
2022-09-12T11:30:19.848Z,41.38
2022-09-12T11:33:08.241Z,42.23
2022-09-12T11:35:50.681Z,41.51
2022-09-12T11:38:33.683Z,43.06
2022-09-12T11:41:07.328Z,40.95
2022-09-12T11:43:45.946Z,40.31
2022-09-12T11:46:38.956Z,40.13
2022-09-12T11:49:15.613Z,37.39
2022-09-12T11:51:50.863Z,39.04
2022-09-12T11:54:36.738Z,38.80
2022-09-12T11:57:15.391Z,39.22
2022-09-12T11:59:51.979Z,37.17
2022-09-12T12:02:27.715Z,38.03
2022-09-12T12:05:40.750Z,37.26
2022-09-12T12:08:08.283Z,38.33
2022-09-12T12:10:44.177Z,38.54
2022-09-12T12:13:30.714Z,39.23
2022-09-12T12:16:04.106Z,34.87
2022-09-12T12:18:33.155Z,36.64
2022-09-12T12:21:21.688Z,36.24
2022-09-12T12:24:13.035Z,34.89
2022-09-12T12:26:44.634Z,34.52
2022-09-12T12:29:17.390Z,33.72
2022-09-12T12:31:59.347Z,36.02
2022-09-12T12:34:31.924Z,38.18
2022-09-12T12:37:19.899Z,35.97
2022-09-12T12:39:56.291Z,38.09
2022-09-12T12:42:38.333Z,39.61
2022-09-12T12:45:20.014Z,40.14
2022-09-12T12:47:54.477Z,36.27
2022-09-12T12:50:26.335Z,35.46
2022-09-12T12:52:54.861Z,36.34
2022-09-12T12:55:38.875Z,39.77
2022-09-12T12:58:24.673Z,39.76
2022-09-12T13:01:07.274Z,41.35
2022-09-12T13:03:34.728Z,38.49
2022-09-12T13:06:05.422Z,40.54
2022-09-12T13:08:35.384Z,41.43
2022-09-12T13:11:27.339Z,38.06
2022-09-12T13:14:00.287Z,39.16
2022-09-12T13:16:37.672Z,40.78
2022-09-12T13:19:29.311Z,36.50
2022-09-12T13:21:57.385Z,34.53
2022-09-12T13:24:23.978Z,38.21
2022-09-12T13:26:50.873Z,38.09
2022-09-12T13:29:22.621Z,37.65
2022-09-12T13:31:53.551Z,37.13
2022-09-12T13:34:41.958Z,40.02
2022-09-12T13:37:31.655Z,39.96
2022-09-12T13:40:24.258Z,39.76
2022-09-12T13:43:17.747Z,39.67
2022-09-12T13:45:47.005Z,41.62
2022-09-12T13:48:20.755Z,37.56
2022-09-12T13:50:56.696Z,41.00
2022-09-12T13:53:28.828Z,40.85
2022-09-12T13:55:59.103Z,42.05
2022-09-12T13:58:28.421Z,42.62
2022-09-12T14:01:16.100Z,42.57
2022-09-12T14:04:09.555Z,38.73
2022-09-12T14:06:44.053Z,39.89
2022-09-12T14:09:29.881Z,39.52
2022-09-12T14:11:57.770Z,43.06
2022-09-12T14:14:40.520Z,40.17
2022-09-12T14:17:24.102Z,41.75
2022-09-12T14:19:52.845Z,44.54
2022-09-12T14:22:19.735Z,42.96
2022-09-12T14:24:51.813Z,40.92
2022-09-12T14:27:28.720Z,38.54
2022-09-12T14:30:22.674Z,41.41
2022-09-12T14:33:10.438Z,42.59
2022-09-12T14:35:43.127Z,43.34
2022-09-12T14:38:09.959Z,43.01
2022-09-12T14:41:01.266Z,43.72
2022-09-12T14:43:34.902Z,43.88
2022-09-12T14:46:15.899Z,44.48
2022-09-12T14:49:27.699Z,40.05
2022-09-12T14:51:56.271Z,43.91
2022-09-12T14:54:37.361Z,44.50
2022-09-12T14:57:07.378Z,44.19
2022-09-12T14:59:40.887Z,44.50
2022-09-12T15:02:14.304Z,39.68
2022-09-12T15:04:43.195Z,43.50
2022-09-12T15:07:22.655Z,42.12
2022-09-12T15:09:49.733Z,44.59
2022-09-12T15:12:16.481Z,43.61
2022-09-12T15:14:43.021Z,44.13
2022-09-12T15:17:09.570Z,42.51
2022-09-12T15:19:36.108Z,45.25
2022-09-12T15:22:02.685Z,38.50
2022-09-12T15:24:29.321Z,43.27
2022-09-12T15:26:56.845Z,44.84
2022-09-12T15:29:23.345Z,41.01
2022-09-12T15:31:51.599Z,43.99
2022-09-12T15:34:18.222Z,43.00
2022-09-12T15:36:44.734Z,43.65
2022-09-12T15:39:12.005Z,43.43
2022-09-12T15:41:39.045Z,42.70
2022-09-12T15:44:15.285Z,43.85
2022-09-12T15:46:42.195Z,44.18
2022-09-12T15:49:08.835Z,43.59
2022-09-12T15:51:35.799Z,43.87
2022-09-12T15:54:04.292Z,43.65
2022-09-12T15:56:30.780Z,44.31
2022-09-12T15:58:59.870Z,44.80
2022-09-12T16:01:28.397Z,44.64
2022-09-12T16:03:55.483Z,43.57
2022-09-12T16:06:22.423Z,44.23
2022-09-12T16:08:49.642Z,43.43
2022-09-12T16:11:26.945Z,43.63
2022-09-12T16:13:55.087Z,42.45
2022-09-12T16:16:22.111Z,43.50
2022-09-12T16:18:49.008Z,43.95
2022-09-12T16:21:16.100Z,44.49
2022-09-12T16:23:47.078Z,43.97
2022-09-12T16:26:14.030Z,43.58
2022-09-12T16:28:41.077Z,44.14
2022-09-12T16:31:10.494Z,44.04
2022-09-12T16:33:38.021Z,43.39
2022-09-12T16:36:13.364Z,43.87
2022-09-12T16:38:45.594Z,44.09
2022-09-12T16:41:13.066Z,43.94
2022-09-12T16:43:40.541Z,43.91
2022-09-12T16:46:12.731Z,43.54
2022-09-12T16:48:52.093Z,43.54
2022-09-12T16:51:21.534Z,43.56
2022-09-12T16:53:49.103Z,43.09
2022-09-12T16:56:16.673Z,43.56
2022-09-12T16:58:43.685Z,40.56
2022-09-12T17:03:40.431Z,43.48
2022-09-12T17:06:12.633Z,43.87
2022-09-12T17:08:41.542Z,44.28
2022-09-12T17:11:13.614Z,43.92
2022-09-12T17:14:03.207Z,44.24
2022-09-12T17:16:28.866Z,43.07
2022-09-12T17:18:55.682Z,44.63
2022-09-12T17:21:25.384Z,45.67
2022-09-12T17:23:51.939Z,46.29
2022-09-12T17:26:18.624Z,46.13
2022-09-12T17:28:45.196Z,45.09
2022-09-12T17:31:14.472Z,45.48
2022-09-12T17:33:41.367Z,45.94
2022-09-12T17:36:11.446Z,46.50
2022-09-12T17:38:39.840Z,47.08
2022-09-12T17:41:18.217Z,46.74
2022-09-12T17:43:52.778Z,46.44
2022-09-12T17:46:20.085Z,46.14
2022-09-12T17:48:54.543Z,47.41
2022-09-12T17:51:22.903Z,47.40
2022-09-12T17:53:49.444Z,48.34
2022-09-12T17:56:16.018Z,47.56
2022-09-12T17:58:42.497Z,48.04
2022-09-12T18:01:33.735Z,48.31
2022-09-12T18:04:01.322Z,48.77
2022-09-12T18:06:29.127Z,48.79
2022-09-12T18:08:55.658Z,48.92
2022-09-12T18:11:22.213Z,49.80
2022-09-12T18:13:49.068Z,49.23
2022-09-12T18:16:16.037Z,49.77
2022-09-12T18:18:43.370Z,49.97
2022-09-12T18:21:11.589Z,49.28
2022-09-12T18:23:38.207Z,49.88
2022-09-12T18:26:10.779Z,48.96
2022-09-12T18:28:39.766Z,49.67
2022-09-12T18:31:16.009Z,50.02
2022-09-12T18:33:43.001Z,50.21
2022-09-12T18:36:12.070Z,49.73
2022-09-12T18:38:39.869Z,49.63
2022-09-12T18:41:11.694Z,50.19
2022-09-12T18:43:38.774Z,50.70
2022-09-12T18:46:07.281Z,50.33
2022-09-12T18:48:34.290Z,50.41
2022-09-12T18:51:12.240Z,50.56
2022-09-12T18:53:39.211Z,50.30
2022-09-12T18:56:11.012Z,50.28
2022-09-12T18:58:40.555Z,50.52
2022-09-12T19:01:15.985Z,50.64
2022-09-12T19:03:43.414Z,50.76
2022-09-12T19:06:12.562Z,50.83
2022-09-12T19:08:40.362Z,50.86
2022-09-12T19:11:08.074Z,50.59
2022-09-12T19:13:37.034Z,50.51
2022-09-12T19:16:05.725Z,50.86
2022-09-12T19:18:34.042Z,51.05
2022-09-12T19:21:01.442Z,51.39
2022-09-12T19:23:30.529Z,51.27
2022-09-12T19:25:58.944Z,51.41
2022-09-12T19:28:25.671Z,51.63
2022-09-12T19:30:53.852Z,51.35
2022-09-12T19:33:21.494Z,51.24
2022-09-12T19:35:50.160Z,51.27
2022-09-12T19:38:17.555Z,51.30
2022-09-12T19:40:44.195Z,51.95
2022-09-12T19:43:11.260Z,52.06
2022-09-12T19:45:38.382Z,52.31
2022-09-12T19:48:05.051Z,52.02
2022-09-12T19:50:33.541Z,51.40
2022-09-12T19:53:00.397Z,51.72
2022-09-12T19:55:27.134Z,51.61
2022-09-12T19:57:54.291Z,52.15
2022-09-12T20:00:22.946Z,52.06
2022-09-12T20:02:53.611Z,52.69
2022-09-12T20:05:23.419Z,52.29
2022-09-12T20:07:50.222Z,51.86
2022-09-12T20:10:16.806Z,52.09
2022-09-12T20:12:43.460Z,52.06
2022-09-12T20:15:12.047Z,52.39
2022-09-12T20:17:40.106Z,52.18
2022-09-12T20:20:08.973Z,51.66
2022-09-12T20:22:39.891Z,51.98
2022-09-12T20:25:07.182Z,52.17
2022-09-12T20:27:34.022Z,52.54
2022-09-12T20:30:00.585Z,52.48
2022-09-12T20:32:28.962Z,52.52
2022-09-12T20:34:59.742Z,52.78
2022-09-12T20:37:26.186Z,52.65
2022-09-12T20:39:57.524Z,52.67
2022-09-12T20:42:24.073Z,53.53
2022-09-12T20:44:54.999Z,52.66
2022-09-12T20:47:22.348Z,52.73
2022-09-12T20:49:51.456Z,52.77
2022-09-12T20:52:21.652Z,53.20
2022-09-12T20:54:48.227Z,53.12
2022-09-12T20:57:17.604Z,54.11
2022-09-12T20:59:44.180Z,52.74
2022-09-12T21:02:16.218Z,52.50
2022-09-12T21:04:43.019Z,52.59
2022-09-12T21:07:11.022Z,53.20
2022-09-12T21:09:37.726Z,53.04
2022-09-12T21:12:04.602Z,53.16
2022-09-12T21:14:31.191Z,53.58
2022-09-12T21:16:57.866Z,53.43
2022-09-12T21:19:24.547Z,52.29
2022-09-12T21:21:51.108Z,52.13
2022-09-12T21:24:17.759Z,52.16
2022-09-12T21:26:49.917Z,52.57
2022-09-12T21:29:19.739Z,52.61
2022-09-12T21:31:46.215Z,52.93
2022-09-12T21:34:12.894Z,52.88
2022-09-12T21:36:39.496Z,53.01
2022-09-12T21:39:06.426Z,52.89
2022-09-12T21:41:32.993Z,53.20
2022-09-12T21:43:59.517Z,53.23
2022-09-12T21:46:26.185Z,52.62
2022-09-12T21:48:52.760Z,52.83
2022-09-12T21:51:19.263Z,53.30
2022-09-12T21:53:45.839Z,53.71
2022-09-12T21:56:12.582Z,53.76
2022-09-12T21:58:39.321Z,53.88
2022-09-12T22:01:06.229Z,54.23
2022-09-12T22:03:33.103Z,54.33
2022-09-12T22:06:01.669Z,54.57
2022-09-12T22:08:29.799Z,54.68
2022-09-12T22:11:02.122Z,54.93
2022-09-12T22:13:31.451Z,54.63
2022-09-12T22:15:58.564Z,54.72
2022-09-12T22:18:25.986Z,54.91
2022-09-12T22:21:00.033Z,55.14
2022-09-12T22:23:47.485Z,55.10
2022-09-12T22:26:14.276Z,55.77
2022-09-12T22:28:41.325Z,55.83
2022-09-12T22:31:12.221Z,55.91
2022-09-12T22:33:42.215Z,55.68
2022-09-12T22:36:09.941Z,55.83
2022-09-12T22:38:36.563Z,55.80
2022-09-12T22:41:09.446Z,55.77
2022-09-12T22:43:37.239Z,55.94
2022-09-12T22:46:12.585Z,56.04
2022-09-12T22:48:39.658Z,55.75
2022-09-12T22:51:08.256Z,56.03
2022-09-12T22:53:38.555Z,56.11
2022-09-12T22:56:05.813Z,56.05
2022-09-12T22:58:34.694Z,55.92
2022-09-12T23:01:01.340Z,56.10
2022-09-12T23:03:28.116Z,56.63
2022-09-12T23:05:54.722Z,56.39
2022-09-12T23:08:21.293Z,56.40
2022-09-12T23:10:48.163Z,56.48
2022-09-12T23:13:15.020Z,56.39
2022-09-12T23:15:41.624Z,56.44
2022-09-12T23:18:08.524Z,56.73
2022-09-12T23:20:35.185Z,56.06
2022-09-12T23:23:02.319Z,56.29
2022-09-12T23:25:28.943Z,56.49
2022-09-12T23:27:55.492Z,56.40
2022-09-12T23:30:21.993Z,56.05
2022-09-12T23:32:49.268Z,56.15
2022-09-12T23:35:19.690Z,55.72
2022-09-12T23:37:47.255Z,55.47
2022-09-12T23:40:13.936Z,55.80
2022-09-12T23:42:40.531Z,55.77
2022-09-12T23:45:07.669Z,55.81
2022-09-12T23:47:34.220Z,55.96
2022-09-12T23:50:00.855Z,55.91
2022-09-12T23:52:27.400Z,56.11
2022-09-12T23:54:54.025Z,56.43
2022-09-12T23:57:20.687Z,56.70
2022-09-12T23:59:47.193Z,55.15
